Time;durP1;ratioP1;P1;durP2;ratioP2;P2;SDS_P1;SDS_P2;PMS_P1;PMS_P2;Temp;Humidity;BMP_temperature;BMP_pressure;BME280_temperature;BME280_humidity;BME280_pressure;Samples;Min_cycle;Max_cycle;Signal;HPM_P1;HPM_P2
2021/10/26 00:08:05;;;;;;;81.07;16.57;;;29.70;86.00;;;;;;5086347;28;20356;-54
2021/10/26 00:10:32;;;;;;;63.15;13.98;;;29.70;86.00;;;;;;5086168;28;20185;-54
2021/10/26 00:12:59;;;;;;;42.28;12.80;;;29.60;85.90;;;;;;5086249;28;20032;-52
2021/10/26 00:15:26;;;;;;;37.38;12.90;;;29.60;86.00;;;;;;5086409;28;20038;-55
2021/10/26 00:17:53;;;;;;;39.92;11.82;;;29.60;86.20;;;;;;5087324;28;20084;-54
2021/10/26 00:20:19;;;;;;;31.02;11.60;;;29.60;86.90;;;;;;5086439;28;20328;-53
2021/10/26 00:22:46;;;;;;;27.70;11.15;;;29.60;86.30;;;;;;5086527;28;20316;-52
2021/10/26 00:25:13;;;;;;;26.70;10.27;;;29.60;86.20;;;;;;5086131;28;20020;-52
2021/10/26 00:27:39;;;;;;;23.33;10.52;;;29.50;86.20;;;;;;5086002;28;20066;-52
2021/10/26 00:30:07;;;;;;;32.13;10.57;;;29.60;86.10;;;;;;5086515;28;20031;-52
2021/10/26 00:32:33;;;;;;;20.38;9.77;;;29.60;86.20;;;;;;5084787;28;20054;-53
2021/10/26 00:35:00;;;;;;;27.25;9.70;;;29.50;86.20;;;;;;5086237;28;20021;-54
2021/10/26 00:37:27;;;;;;;29.52;9.82;;;29.50;86.10;;;;;;5085681;28;20020;-54
2021/10/26 00:39:53;;;;;;;20.67;9.63;;;29.50;86.00;;;;;;5085319;28;20024;-52
2021/10/26 00:42:20;;;;;;;16.80;9.15;;;29.50;85.90;;;;;;5085721;28;20205;-50
2021/10/26 00:44:47;;;;;;;18.45;9.65;;;29.50;85.90;;;;;;5084937;28;20025;-51
2021/10/26 00:47:14;;;;;;;23.05;10.30;;;29.50;85.90;;;;;;5068017;28;20096;-53
2021/10/26 00:49:41;;;;;;;20.35;9.20;;;29.50;85.90;;;;;;5085112;28;20063;-57
2021/10/26 00:52:07;;;;;;;18.40;8.77;;;29.50;85.90;;;;;;5085418;28;20311;-57
2021/10/26 00:54:34;;;;;;;14.75;9.05;;;29.50;85.90;;;;;;5085663;28;20039;-54
2021/10/26 00:57:01;;;;;;;14.60;8.45;;;29.40;85.80;;;;;;5085622;28;20017;-55
2021/10/26 00:59:28;;;;;;;20.75;9.60;;;29.40;85.80;;;;;;5085663;28;20050;-53
2021/10/26 01:01:55;;;;;;;19.33;8.75;;;29.40;85.80;;;;;;5085417;28;20024;-53
2021/10/26 01:04:22;;;;;;;15.23;8.63;;;29.40;85.70;;;;;;5084950;28;20067;-53
2021/10/26 01:06:49;;;;;;;18.70;9.48;;;29.40;85.70;;;;;;5085675;28;20190;-52
2021/10/26 01:09:16;;;;;;;15.80;8.63;;;29.40;85.40;;;;;;5085601;28;20024;-53
2021/10/26 01:11:44;;;;;;;18.85;7.70;;;29.40;85.40;;;;;;5084100;28;20035;-51
2021/10/26 01:14:11;;;;;;;16.02;8.20;;;29.40;85.30;;;;;;5084880;28;20039;-51
2021/10/26 01:16:38;;;;;;;17.50;8.48;;;29.40;85.10;;;;;;5085564;28;20008;-53
2021/10/26 01:19:05;;;;;;;17.67;8.15;;;29.40;85.00;;;;;;5086195;28;20028;-55
2021/10/26 01:21:31;;;;;;;16.17;7.93;;;29.30;84.70;;;;;;5086382;28;20087;-54
2021/10/26 01:23:58;;;;;;;16.75;7.95;;;29.30;84.80;;;;;;5084381;28;20040;-52
2021/10/26 01:26:25;;;;;;;17.13;8.30;;;29.30;84.70;;;;;;5084571;28;20096;-54
2021/10/26 01:28:51;;;;;;;11.95;6.90;;;29.30;84.70;;;;;;5084869;28;20042;-58
2021/10/26 01:31:18;;;;;;;16.67;7.63;;;29.30;84.50;;;;;;5084710;28;20016;-59
2021/10/26 01:33:45;;;;;;;17.23;7.20;;;29.30;84.30;;;;;;5084690;28;20235;-56
2021/10/26 01:36:14;;;;;;;15.02;7.35;;;29.30;84.30;;;;;;5084736;28;20058;-56
2021/10/26 01:38:40;;;;;;;16.00;7.50;;;29.20;84.00;;;;;;5083718;28;20020;-54
2021/10/26 01:41:07;;;;;;;16.30;7.72;;;29.30;83.90;;;;;;5083366;28;20085;-59
2021/10/26 01:43:34;;;;;;;20.83;8.82;;;29.30;83.90;;;;;;5084572;28;20021;-59
2021/10/26 01:46:00;;;;;;;15.80;7.75;;;29.20;83.80;;;;;;5084462;28;20111;-52
2021/10/26 01:48:27;;;;;;;14.95;8.00;;;29.20;83.60;;;;;;5084451;28;20016;-52
2021/10/26 01:50:57;;;;;;;18.55;7.32;;;29.20;83.70;;;;;;5084363;28;20332;-51
2021/10/26 01:53:26;;;;;;;15.85;7.50;;;29.20;83.50;;;;;;5084367;28;20024;-54
2021/10/26 01:55:53;;;;;;;13.52;6.88;;;29.20;83.60;;;;;;5084077;28;20031;-52
2021/10/26 01:58:20;;;;;;;12.10;6.75;;;29.20;83.30;;;;;;5084632;28;20032;-52
2021/10/26 02:00:47;;;;;;;11.25;6.45;;;29.20;83.20;;;;;;5084600;28;20012;-52
2021/10/26 02:03:13;;;;;;;11.25;6.32;;;29.10;83.10;;;;;;5066505;28;20305;-54
2021/10/26 02:05:40;;;;;;;15.30;6.47;;;29.10;82.80;;;;;;5084302;28;20078;-53
2021/10/26 02:08:07;;;;;;;13.95;6.70;;;29.10;83.20;;;;;;5084104;28;20025;-55
2021/10/26 02:10:33;;;;;;;16.67;6.03;;;29.10;82.40;;;;;;5083972;28;20032;-52
2021/10/26 02:13:00;;;;;;;15.88;5.60;;;29.10;82.30;;;;;;5084039;28;20016;-53
2021/10/26 02:15:27;;;;;;;11.00;5.95;;;29.10;82.10;;;;;;5082866;28;20209;-53
2021/10/26 02:17:53;;;;;;;8.05;5.35;;;29.10;82.70;;;;;;5083824;28;20299;-54
2021/10/26 02:20:20;;;;;;;8.75;5.80;;;29.10;81.90;;;;;;5084184;28;20092;-51
2021/10/26 02:22:47;;;;;;;11.20;5.70;;;29.10;81.80;;;;;;5084398;28;20066;-53
2021/10/26 02:25:14;;;;;;;9.93;5.38;;;29.10;81.80;;;;;;5083963;28;20087;-54
2021/10/26 02:27:40;;;;;;;9.35;5.45;;;29.10;81.50;;;;;;5082793;28;20229;-50
2021/10/26 02:30:08;;;;;;;8.70;5.28;;;29.00;81.30;;;;;;5084346;28;20023;-52
2021/10/26 02:32:35;;;;;;;9.80;4.65;;;29.00;81.20;;;;;;5083811;28;20021;-55
2021/10/26 02:35:02;;;;;;;12.38;5.10;;;29.00;81.00;;;;;;5084127;28;20012;-55
2021/10/26 02:37:28;;;;;;;12.20;4.68;;;29.00;80.70;;;;;;5084040;28;20107;-53
2021/10/26 02:39:56;;;;;;;7.03;4.78;;;29.00;80.60;;;;;;5084141;28;20020;-53
2021/10/26 02:42:22;;;;;;;9.90;4.57;;;29.00;80.60;;;;;;5083912;28;20025;-54
2021/10/26 02:44:49;;;;;;;7.95;4.82;;;29.00;80.60;;;;;;5084179;28;20016;-48
2021/10/26 02:47:16;;;;;;;7.15;4.25;;;29.00;80.40;;;;;;5083665;28;20024;-48
2021/10/26 02:49:43;;;;;;;7.78;4.22;;;28.90;80.30;;;;;;5083398;28;20094;-53
2021/10/26 02:52:09;;;;;;;7.28;4.28;;;29.00;80.30;;;;;;5083592;28;20021;-53
2021/10/26 02:54:36;;;;;;;8.88;4.45;;;28.90;80.10;;;;;;5083858;28;20224;-54
2021/10/26 02:57:03;;;;;;;7.05;4.10;;;28.90;79.70;;;;;;5083515;28;20017;-50
2021/10/26 02:59:30;;;;;;;5.38;4.00;;;28.90;79.80;;;;;;5082662;28;20020;-47
2021/10/26 03:01:56;;;;;;;6.30;4.18;;;28.90;79.70;;;;;;5083496;28;20065;-45
2021/10/26 03:04:23;;;;;;;7.13;4.05;;;28.90;79.70;;;;;;5083735;28;20021;-49
2021/10/26 03:06:50;;;;;;;7.40;3.88;;;28.90;79.90;;;;;;5083352;28;20066;-47
2021/10/26 03:09:16;;;;;;;6.10;4.13;;;28.90;79.70;;;;;;5083244;28;20348;-51
2021/10/26 03:11:43;;;;;;;5.57;3.78;;;28.90;79.70;;;;;;5083391;28;20023;-54
2021/10/26 03:14:10;;;;;;;6.00;3.47;;;28.80;79.50;;;;;;5083694;28;20025;-51
2021/10/26 03:16:37;;;;;;;6.68;3.58;;;28.80;79.40;;;;;;5083375;28;20212;-56
2021/10/26 03:19:07;;;;;;;6.50;3.78;;;28.80;79.30;;;;;;5083368;28;20032;-55
2021/10/26 03:21:35;;;;;;;8.00;3.60;;;28.80;79.40;;;;;;5083445;28;20069;-57
2021/10/26 03:24:02;;;;;;;7.68;4.00;;;28.80;79.20;;;;;;5083590;28;20024;-57
2021/10/26 03:26:29;;;;;;;9.77;3.92;;;28.80;79.10;;;;;;5083121;28;20100;-54
2021/10/26 03:28:56;;;;;;;7.43;3.88;;;28.80;79.00;;;;;;5082174;28;20031;-53
2021/10/26 03:31:23;;;;;;;7.18;3.42;;;28.70;78.70;;;;;;5082431;28;20312;-53
2021/10/26 03:33:50;;;;;;;5.30;3.47;;;28.70;78.70;;;;;;5083319;28;20032;-52
2021/10/26 03:36:17;;;;;;;6.18;3.50;;;28.70;78.60;;;;;;5083320;28;20062;-52
2021/10/26 03:38:44;;;;;;;8.93;3.15;;;28.70;78.30;;;;;;5083816;28;20028;-54
2021/10/26 03:41:11;;;;;;;7.10;3.47;;;28.80;78.40;;;;;;5083111;28;20028;-52
2021/10/26 03:43:38;;;;;;;10.48;3.47;;;28.80;78.30;;;;;;5083423;28;20025;-52
2021/10/26 03:46:08;;;;;;;7.53;3.42;;;28.70;78.10;;;;;;5083876;28;20088;-52
2021/10/26 03:48:37;;;;;;;10.35;3.55;;;28.70;78.10;;;;;;5086454;28;20118;-52
2021/10/26 03:51:04;;;;;;;6.07;3.20;;;28.70;77.90;;;;;;5086733;28;20066;-53
2021/10/26 03:53:31;;;;;;;8.18;3.95;;;28.70;77.90;;;;;;5086814;28;20263;-55
2021/10/26 03:55:58;;;;;;;5.00;3.65;;;28.70;77.90;;;;;;5086908;28;20013;-55
2021/10/26 03:58:25;;;;;;;6.03;3.70;;;28.70;78.00;;;;;;5086863;28;20024;-53
2021/10/26 04:00:52;;;;;;;9.40;3.35;;;28.70;78.00;;;;;;5086711;28;20021;-53
2021/10/26 04:03:19;;;;;;;7.43;4.10;;;28.70;78.00;;;;;;5086585;28;20031;-53
2021/10/26 04:11:05;;;;;;;6.95;3.70;;;28.70;78.20;;;;;;5086442;28;20269;-60
2021/10/26 04:13:32;;;;;;;8.63;3.70;;;28.70;78.30;;;;;;5086514;28;20051;-60
2021/10/26 04:15:59;;;;;;;6.72;3.80;;;28.70;78.30;;;;;;5086217;28;20032;-56
2021/10/26 04:18:25;;;;;;;6.57;3.70;;;28.70;78.40;;;;;;5086521;28;20024;-54
2021/10/26 04:20:53;;;;;;;6.22;3.80;;;28.70;78.50;;;;;;5086325;28;20078;-59
2021/10/26 04:23:20;;;;;;;5.45;3.92;;;28.70;78.50;;;;;;5086115;28;20029;-56
2021/10/26 04:25:47;;;;;;;7.93;3.65;;;28.70;78.50;;;;;;5086244;28;20025;-57
2021/10/26 04:28:14;;;;;;;9.40;4.13;;;28.70;78.50;;;;;;5086081;28;20020;-56
2021/10/26 04:30:41;;;;;;;8.65;4.00;;;28.70;78.60;;;;;;5085948;28;20212;-56
2021/10/26 04:33:08;;;;;;;7.60;3.88;;;28.70;78.50;;;;;;5086015;28;20257;-56
2021/10/26 04:35:35;;;;;;;6.00;3.67;;;28.70;78.50;;;;;;5086112;28;20027;-58
2021/10/26 04:38:03;;;;;;;8.52;3.63;;;28.70;78.40;;;;;;5085757;28;20017;-58
2021/10/26 04:40:31;;;;;;;6.32;3.92;;;28.70;78.20;;;;;;5085809;28;20301;-57
2021/10/26 04:42:59;;;;;;;7.53;3.65;;;28.70;78.20;;;;;;5085744;28;20057;-57
2021/10/26 04:45:26;;;;;;;5.47;3.38;;;28.70;78.00;;;;;;5084421;28;20031;-52
2021/10/26 04:47:53;;;;;;;12.07;4.03;;;28.70;77.90;;;;;;5085704;28;20017;-49
2021/10/26 04:50:20;;;;;;;5.93;3.63;;;28.60;77.70;;;;;;5085410;28;20367;-50
2021/10/26 04:52:47;;;;;;;7.22;3.67;;;28.70;77.90;;;;;;5085383;28;20126;-45
2021/10/26 04:55:14;;;;;;;6.47;3.78;;;28.70;77.90;;;;;;5084438;28;20051;-56
2021/10/26 04:57:41;;;;;;;7.05;3.70;;;28.70;77.90;;;;;;5085623;28;20023;-58
2021/10/26 05:00:09;;;;;;;9.27;3.38;;;28.60;77.80;;;;;;5085836;28;20020;-57
2021/10/26 05:02:37;;;;;;;7.47;3.40;;;28.60;77.60;;;;;;5085373;28;20017;-60
2021/10/26 05:05:05;;;;;;;6.80;3.50;;;28.70;77.60;;;;;;5085825;28;20024;-60
2021/10/26 05:07:32;;;;;;;5.13;3.53;;;28.60;77.40;;;;;;5085163;28;20068;-60
2021/10/26 05:09:59;;;;;;;6.25;3.40;;;28.60;77.40;;;;;;5085640;28;20302;-60
2021/10/26 05:12:25;;;;;;;7.85;3.38;;;28.60;77.30;;;;;;5085175;28;20012;-60
2021/10/26 05:14:52;;;;;;;6.07;3.83;;;28.60;77.30;;;;;;5085370;28;20047;-60
2021/10/26 05:17:21;;;;;;;9.60;3.80;;;28.60;77.30;;;;;;5084978;28;20012;-60
2021/10/26 05:19:50;;;;;;;7.18;3.42;;;28.60;76.90;;;;;;5085415;28;20212;-60
2021/10/26 05:22:18;;;;;;;7.35;3.72;;;28.60;77.00;;;;;;5084840;28;20020;-54
2021/10/26 05:24:45;;;;;;;6.88;3.42;;;28.60;77.00;;;;;;5085315;28;20028;-59
2021/10/26 05:27:12;;;;;;;6.78;3.97;;;28.60;77.20;;;;;;5084896;28;20327;-58
2021/10/26 05:29:43;;;;;;;7.72;3.60;;;28.60;77.20;;;;;;5085056;28;20041;-60
2021/10/26 05:32:09;;;;;;;8.30;3.65;;;28.60;77.30;;;;;;5084806;28;20012;-60
2021/10/26 05:34:40;;;;;;;8.98;3.38;;;28.60;77.40;;;;;;5085171;28;20035;-59
2021/10/26 05:37:07;;;;;;;7.53;3.55;;;28.60;77.20;;;;;;5084906;28;20017;-60
2021/10/26 05:39:35;;;;;;;7.70;3.22;;;28.50;77.20;;;;;;5084761;28;20029;-57
2021/10/26 05:42:02;;;;;;;7.22;3.72;;;28.50;77.20;;;;;;5084684;28;20019;-54
2021/10/26 05:44:29;;;;;;;4.82;2.95;;;28.50;77.30;;;;;;5084856;28;20032;-59
2021/10/26 05:46:55;;;;;;;7.32;3.90;;;28.50;77.30;;;;;;5084488;28;20025;-59
2021/10/26 05:49:22;;;;;;;10.13;3.95;;;28.50;77.20;;;;;;5084432;28;20036;-57
2021/10/26 05:51:49;;;;;;;6.30;3.38;;;28.50;77.10;;;;;;5084153;28;20020;-54
2021/10/26 05:54:16;;;;;;;8.90;3.72;;;28.50;77.20;;;;;;5084737;28;20088;-54
2021/10/26 05:56:43;;;;;;;6.07;3.28;;;28.50;77.20;;;;;;5084344;28;20365;-58
2021/10/26 05:59:09;;;;;;;6.68;3.00;;;28.50;77.20;;;;;;5084391;28;20082;-59
2021/10/26 06:01:36;;;;;;;10.45;3.38;;;28.50;77.20;;;;;;5084378;28;20044;-60
2021/10/26 06:04:04;;;;;;;7.10;3.30;;;28.50;77.20;;;;;;5083139;28;20028;-60
2021/10/26 06:06:30;;;;;;;10.02;3.28;;;28.50;77.10;;;;;;5084041;28;20198;-60
2021/10/26 06:08:57;;;;;;;6.30;3.55;;;28.50;77.10;;;;;;5083883;28;20029;-60
2021/10/26 06:11:25;;;;;;;5.47;3.22;;;28.50;76.90;;;;;;5084152;28;20040;-61
2021/10/26 06:14:01;;;;;;;4.65;3.25;;;28.50;76.80;;;;;;5084187;28;20016;-63
2021/10/26 06:16:29;;;;;;;8.93;3.70;;;28.50;76.70;;;;;;5084147;28;20016;-57
2021/10/26 06:18:56;;;;;;;4.93;3.35;;;28.50;76.80;;;;;;5084109;28;20257;-57
2021/10/26 06:21:22;;;;;;;9.32;3.58;;;28.40;76.40;;;;;;5084027;28;20063;-56
2021/10/26 06:23:49;;;;;;;7.15;3.60;;;28.40;76.70;;;;;;5083940;28;20021;-56
2021/10/26 06:26:16;;;;;;;5.88;3.47;;;28.40;76.70;;;;;;5083926;28;20029;-56
2021/10/26 06:28:42;;;;;;;5.68;3.30;;;28.40;76.60;;;;;;5084034;28;20243;-60
2021/10/26 06:31:09;;;;;;;6.50;3.63;;;28.40;76.60;;;;;;5083963;28;20023;-59
2021/10/26 06:33:36;;;;;;;6.75;3.50;;;28.40;76.70;;;;;;5084030;28;20377;-59
2021/10/26 06:36:03;;;;;;;5.20;3.55;;;28.50;76.60;;;;;;5082683;28;20236;-59
2021/10/26 06:38:29;;;;;;;7.20;3.30;;;28.50;76.80;;;;;;5084019;28;20028;-59
2021/10/26 06:40:56;;;;;;;4.95;3.38;;;28.40;77.20;;;;;;5083877;28;20012;-54
2021/10/26 06:43:23;;;;;;;5.10;3.35;;;28.40;77.00;;;;;;5082585;28;20024;-53
2021/10/26 06:45:50;;;;;;;7.63;3.60;;;28.40;77.00;;;;;;5083794;28;20020;-53
2021/10/26 06:48:19;;;;;;;5.80;3.53;;;28.40;77.20;;;;;;5083645;28;20028;-53
2021/10/26 06:50:46;;;;;;;5.60;3.58;;;28.40;77.20;;;;;;5083633;28;20351;-54
2021/10/26 06:53:13;;;;;;;6.07;3.25;;;28.40;77.30;;;;;;5083991;28;20050;-53
2021/10/26 06:55:39;;;;;;;8.27;3.25;;;28.40;77.30;;;;;;5083765;28;20021;-52
2021/10/26 06:58:06;;;;;;;7.20;3.60;;;28.40;77.40;;;;;;5083801;28;20098;-53
2021/10/26 07:00:33;;;;;;;5.35;3.35;;;28.40;77.60;;;;;;5083729;28;20190;-53
2021/10/26 07:03:03;;;;;;;4.93;3.55;;;28.40;77.80;;;;;;5083671;28;20269;-53
2021/10/26 07:05:30;;;;;;;6.80;3.83;;;28.40;78.00;;;;;;5083443;28;20044;-53
2021/10/26 07:07:56;;;;;;;6.05;3.60;;;28.40;78.10;;;;;;5083499;28;20020;-51
2021/10/26 07:10:23;;;;;;;4.88;3.30;;;28.40;78.30;;;;;;5083489;28;20024;-50
2021/10/26 07:12:50;;;;;;;5.53;3.65;;;28.40;78.30;;;;;;5083316;28;20017;-52
2021/10/26 07:15:17;;;;;;;6.28;3.30;;;28.40;78.40;;;;;;5083476;28;20020;-53
2021/10/26 07:17:43;;;;;;;6.25;3.58;;;28.40;78.50;;;;;;5083476;28;20032;-52
2021/10/26 07:20:14;;;;;;;5.22;3.58;;;28.40;78.40;;;;;;5083334;28;20324;-52
2021/10/26 07:22:49;;;;;;;6.90;3.45;;;28.40;78.60;;;;;;5086551;28;20023;-53
2021/10/26 07:25:16;;;;;;;5.38;3.60;;;28.40;78.60;;;;;;5087114;28;20024;-59
2021/10/26 07:27:42;;;;;;;6.88;3.55;;;28.40;78.60;;;;;;5087381;28;20369;-55
2021/10/26 07:30:11;;;;;;;4.85;3.17;;;28.30;78.40;;;;;;5087640;28;20039;-56
2021/10/26 07:32:40;;;;;;;12.13;3.58;;;28.30;78.40;;;;;;5086972;28;20019;-58
2021/10/26 07:35:07;;;;;;;7.20;3.58;;;28.30;78.30;;;;;;5087554;28;20020;-58
2021/10/26 07:37:43;;;;;;;6.35;3.42;;;28.30;78.30;;;;;;5087092;28;20021;-56
2021/10/26 07:40:11;;;;;;;5.68;3.38;;;28.30;78.20;;;;;;5086789;28;20032;-56
2021/10/26 07:42:38;;;;;;;5.13;3.10;;;28.30;78.20;;;;;;5086039;28;20025;-54
2021/10/26 07:45:06;;;;;;;7.45;3.40;;;28.30;78.20;;;;;;5087376;28;20056;-58
2021/10/26 07:47:34;;;;;;;9.27;3.15;;;28.30;77.90;;;;;;5086759;28;20024;-58
2021/10/26 07:50:01;;;;;;;7.68;3.15;;;28.30;78.00;;;;;;5086663;28;20328;-58
2021/10/26 07:52:28;;;;;;;6.10;3.05;;;28.30;78.10;;;;;;5086878;28;20024;-50
2021/10/26 07:54:55;;;;;;;6.72;3.47;;;28.30;78.20;;;;;;5087016;28;20032;-46
2021/10/26 07:57:23;;;;;;;4.85;3.40;;;28.30;78.20;;;;;;5086814;28;20208;-48
2021/10/26 07:59:52;;;;;;;8.27;3.45;;;28.30;78.30;;;;;;5087111;28;20032;-49
2021/10/26 08:02:19;;;;;;;5.70;3.45;;;28.30;78.30;;;;;;5086495;28;20020;-49
2021/10/26 08:04:46;;;;;;;5.00;3.00;;;28.30;78.30;;;;;;5087032;28;20199;-52
2021/10/26 08:07:16;;;;;;;4.50;2.78;;;28.30;78.30;;;;;;5086530;28;20032;-53
2021/10/26 08:09:47;;;;;;;7.63;3.05;;;28.30;78.20;;;;;;5086240;28;20138;-53
2021/10/26 08:12:14;;;;;;;8.00;3.08;;;28.30;78.10;;;;;;5086625;28;20098;-52
2021/10/26 08:14:41;;;;;;;6.45;3.35;;;28.30;78.10;;;;;;5086733;28;20024;-54
2021/10/26 08:17:08;;;;;;;5.60;3.22;;;28.30;78.10;;;;;;5086361;28;20365;-49
2021/10/26 08:19:37;;;;;;;7.05;3.40;;;28.30;78.20;;;;;;5086786;28;20032;-49
2021/10/26 08:22:06;;;;;;;4.50;3.10;;;28.30;78.30;;;;;;5086196;28;20190;-52
2021/10/26 08:24:34;;;;;;;5.55;3.33;;;28.30;78.40;;;;;;5086549;28;20032;-47
2021/10/26 08:27:04;;;;;;;6.75;3.20;;;28.30;78.50;;;;;;5086470;28;20028;-47
2021/10/26 08:29:44;;;;;;;6.15;3.28;;;28.30;78.80;;;;;;5086270;28;20032;-46
2021/10/26 08:37:58;;;;;;;6.07;3.40;;;28.30;79.00;;;;;;5086379;28;20359;-54
2021/10/26 08:40:25;;;;;;;7.55;3.15;;;28.20;79.00;;;;;;5085829;28;20032;-51
2021/10/26 08:42:54;;;;;;;8.48;3.20;;;28.20;79.20;;;;;;5085868;28;20043;-56
2021/10/26 08:45:26;;;;;;;7.90;3.50;;;28.20;80.10;;;;;;5085982;28;20027;-54
2021/10/26 08:47:53;;;;;;;7.72;3.60;;;28.20;79.90;;;;;;5085917;28;20046;-53
2021/10/26 08:50:20;;;;;;;4.55;3.05;;;28.20;80.00;;;;;;5085514;28;20037;-54
2021/10/26 08:52:51;;;;;;;6.53;3.25;;;28.20;80.60;;;;;;5084631;28;20013;-58
2021/10/26 08:55:18;;;;;;;8.30;3.33;;;28.20;80.20;;;;;;5085625;28;20325;-59
2021/10/26 08:57:48;;;;;;;8.82;3.45;;;28.20;80.10;;;;;;5085575;28;20062;-60
2021/10/26 09:00:17;;;;;;;5.90;3.40;;;28.20;80.20;;;;;;5085443;28;20217;-62
2021/10/26 09:02:49;;;;;;;12.60;3.28;;;28.20;80.10;;;;;;5085442;28;20316;-63
2021/10/26 09:05:23;;;;;;;;;;;28.20;80.00;;;;;;5085726;28;20343;-63
2021/10/26 09:08:10;;;;;;;4.78;2.92;;;28.20;80.40;;;;;;5085358;28;19950;-63
2021/10/26 09:10:38;;;;;;;5.30;3.40;;;28.20;79.50;;;;;;5085101;28;20039;-55
2021/10/26 09:19:15;;;;;;;3.75;2.63;;;28.10;79.00;;;;;;5085299;28;20028;-52
2021/10/26 09:21:43;;;;;;;6.75;3.10;;;28.10;78.60;;;;;;5085060;28;20070;-51
2021/10/26 09:24:15;;;;;;;4.90;2.92;;;28.10;78.60;;;;;;5085146;28;20024;-47
2021/10/26 09:26:52;;;;;;;4.57;2.78;;;28.10;78.20;;;;;;5084995;28;20025;-47
2021/10/26 09:29:29;;;;;;;7.93;2.95;;;28.10;78.30;;;;;;5085155;28;20028;-53
2021/10/26 09:32:04;;;;;;;9.90;2.83;;;28.10;78.20;;;;;;5084942;28;20024;-54
2021/10/26 09:34:42;;;;;;;7.80;3.00;;;28.10;78.30;;;;;;5085342;28;20301;-52
2021/10/26 09:37:10;;;;;;;5.30;3.08;;;28.10;78.40;;;;;;5084759;28;20122;-50
2021/10/26 09:39:37;;;;;;;5.50;3.33;;;28.10;78.50;;;;;;5084608;28;20028;-51
2021/10/26 09:42:07;;;;;;;8.20;3.40;;;28.10;78.50;;;;;;5084543;28;20025;-53
2021/10/26 09:44:41;;;;;;;7.65;2.92;;;28.10;78.60;;;;;;5084403;28;20029;-52
2021/10/26 09:47:07;;;;;;;5.50;3.38;;;28.10;78.70;;;;;;5084596;28;20024;-54
2021/10/26 09:49:42;;;;;;;8.68;4.47;;;28.10;79.00;;;;;;5084241;28;20328;-54
2021/10/26 09:52:10;;;;;;;6.85;4.35;;;28.00;79.00;;;;;;5084583;28;20090;-53
2021/10/26 09:54:39;;;;;;;9.18;4.22;;;28.00;79.10;;;;;;5084886;28;20029;-53
2021/10/26 09:57:15;;;;;;;9.18;3.72;;;28.00;79.10;;;;;;5084390;28;20087;-54
2021/10/26 09:59:53;;;;;;;7.13;3.80;;;28.00;79.10;;;;;;5084793;28;20099;-53
2021/10/26 10:02:25;;;;;;;6.97;3.60;;;28.00;79.00;;;;;;5084570;28;20024;-53
2021/10/26 10:04:54;;;;;;;6.85;3.30;;;28.00;79.00;;;;;;5084733;28;20197;-51
2021/10/26 10:07:32;;;;;;;7.55;3.20;;;28.00;79.00;;;;;;5084147;28;20024;-54
2021/10/26 10:10:11;;;;;;;5.32;3.20;;;28.00;79.00;;;;;;5084528;28;20048;-53
2021/10/26 10:12:45;;;;;;;6.10;3.13;;;28.00;79.10;;;;;;5084009;28;20078;-54
2021/10/26 10:15:14;;;;;;;7.28;3.25;;;28.00;79.20;;;;;;5084134;28;20095;-53
2021/10/26 10:17:42;;;;;;;7.55;3.45;;;28.00;79.20;;;;;;5084137;28;20055;-52
2021/10/26 10:20:12;;;;;;;5.38;3.22;;;28.00;79.30;;;;;;5084426;28;20221;-53
2021/10/26 10:22:41;;;;;;;7.10;3.17;;;27.90;79.20;;;;;;5084036;28;20024;-58
2021/10/26 10:25:11;;;;;;;4.50;3.47;;;27.90;79.20;;;;;;5084496;28;20088;-57
2021/10/26 10:27:43;;;;;;;5.38;3.33;;;28.00;79.20;;;;;;5083952;28;20354;-49
2021/10/26 10:30:10;;;;;;;7.25;3.00;;;28.00;79.20;;;;;;5083837;28;20078;-49
2021/10/26 10:32:39;;;;;;;5.65;3.25;;;27.90;79.10;;;;;;5083735;28;20050;-53
2021/10/26 10:35:12;;;;;;;9.82;3.40;;;27.90;79.20;;;;;;5084465;28;20039;-53
2021/10/26 10:37:42;;;;;;;9.48;3.22;;;27.90;79.20;;;;;;5083885;28;20017;-58
2021/10/26 10:40:10;;;;;;;10.23;3.47;;;27.90;79.30;;;;;;5084105;28;20039;-58
2021/10/26 10:42:48;;;;;;;6.40;3.03;;;27.90;79.30;;;;;;5083930;28;20040;-58
2021/10/26 10:45:26;;;;;;;7.00;3.55;;;27.90;79.40;;;;;;5083657;28;20028;-50
2021/10/26 10:47:55;;;;;;;9.40;3.63;;;27.90;79.50;;;;;;5083723;28;20083;-51
2021/10/26 10:50:21;;;;;;;11.38;3.63;;;27.80;79.60;;;;;;5083516;28;20083;-49
2021/10/26 10:53:08;;;;;;;7.75;3.40;;;27.90;79.80;;;;;;5083469;28;20017;-50
2021/10/26 10:55:36;;;;;;;9.40;3.53;;;27.80;79.80;;;;;;5085194;28;20024;-50
2021/10/26 10:58:21;;;;;;;8.50;3.60;;;27.80;79.90;;;;;;5087643;28;20062;-50
2021/10/26 11:00:49;;;;;;;6.95;3.58;;;27.80;80.00;;;;;;5087838;28;20070;-53
2021/10/26 11:03:35;;;;;;;8.13;4.05;;;27.80;80.10;;;;;;5087853;28;20351;-53
2021/10/26 11:06:02;;;;;;;10.50;3.78;;;27.80;80.40;;;;;;5087821;28;20031;-54
2021/10/26 11:08:48;;;;;;;8.65;4.20;;;27.80;80.40;;;;;;5087469;28;20029;-57
2021/10/26 11:11:16;;;;;;;9.07;3.92;;;27.80;80.40;;;;;;5087674;28;20016;-57
2021/10/26 11:13:44;;;;;;;11.02;3.95;;;27.80;80.40;;;;;;5087720;28;20095;-57
2021/10/26 11:16:12;;;;;;;11.02;3.92;;;27.80;80.40;;;;;;5087570;28;20020;-56
2021/10/26 11:18:46;;;;;;;12.32;4.35;;;27.80;80.40;;;;;;5087751;28;20033;-56
2021/10/26 11:21:23;;;;;;;11.18;4.35;;;27.80;80.30;;;;;;5087294;28;20024;-58
2021/10/26 11:24:11;;;;;;;9.07;4.10;;;27.80;80.40;;;;;;5087322;28;20028;-56
2021/10/26 11:26:42;;;;;;;12.70;3.80;;;27.80;80.40;;;;;;5087142;28;20016;-51
2021/10/26 11:29:14;;;;;;;11.40;4.63;;;27.80;80.00;;;;;;5087276;28;20043;-52
2021/10/26 11:31:49;;;;;;;8.85;4.40;;;27.80;80.00;;;;;;5087052;28;20017;-50
2021/10/26 11:34:26;;;;;;;19.33;4.00;;;27.80;80.10;;;;;;5087553;28;20032;-48
2021/10/26 11:37:08;;;;;;;20.48;4.50;;;27.80;80.00;;;;;;5087022;28;20232;-48
2021/10/26 11:39:37;;;;;;;14.80;3.50;;;27.80;80.30;;;;;;5087286;28;20025;-50
2021/10/26 11:42:10;;;;;;;15.25;3.95;;;27.80;79.90;;;;;;5086817;28;20036;-52
2021/10/26 11:44:36;;;;;;;14.23;4.15;;;27.80;80.00;;;;;;5087243;28;20029;-50
2021/10/26 11:47:07;;;;;;;16.80;4.20;;;27.80;80.00;;;;;;5086861;28;20032;-46
2021/10/26 11:49:34;;;;;;;13.30;4.30;;;27.80;80.00;;;;;;5086470;28;20045;-50
2021/10/26 11:52:02;;;;;;;12.85;3.95;;;27.80;80.00;;;;;;5086773;28;20020;-50
2021/10/26 11:54:33;;;;;;;14.07;4.00;;;27.80;80.00;;;;;;5087130;28;20031;-50
2021/10/26 11:57:01;;;;;;;12.80;4.10;;;27.80;80.10;;;;;;5086549;28;20032;-48
2021/10/26 11:59:33;;;;;;;11.60;3.92;;;27.80;80.30;;;;;;5087142;28;20092;-52
2021/10/26 12:02:17;;;;;;;10.82;3.95;;;27.80;80.20;;;;;;5086626;28;20023;-50
2021/10/26 12:04:55;;;;;;;11.38;3.55;;;27.80;80.30;;;;;;5087058;28;20070;-50
2021/10/26 12:07:27;;;;;;;11.38;3.88;;;27.80;80.40;;;;;;5085681;28;20043;-53
2021/10/26 12:09:58;;;;;;;13.18;4.30;;;27.80;80.50;;;;;;5086397;28;20070;-51
2021/10/26 12:12:31;;;;;;;13.63;4.32;;;27.90;80.60;;;;;;5086404;28;20031;-53
2021/10/26 12:15:06;;;;;;;14.63;4.22;;;27.90;80.70;;;;;;5086747;28;20025;-52
2021/10/26 12:17:35;;;;;;;12.95;3.88;;;27.90;81.40;;;;;;5086210;28;20019;-53
2021/10/26 12:20:15;;;;;;;10.90;4.03;;;27.90;80.90;;;;;;5086417;28;20325;-51
2021/10/26 12:22:54;;;;;;;9.23;3.97;;;27.90;80.90;;;;;;5086336;28;20092;-54
2021/10/26 12:25:30;;;;;;;10.95;4.03;;;27.90;81.20;;;;;;5086080;28;20028;-54
2021/10/26 12:27:58;;;;;;;13.55;4.30;;;27.90;81.50;;;;;;5084873;28;20028;-55
2021/10/26 12:30:32;;;;;;;10.40;3.88;;;27.90;81.40;;;;;;5085967;28;20024;-59
2021/10/26 12:32:58;;;;;;;8.55;4.10;;;27.90;81.40;;;;;;5085924;28;20013;-57
2021/10/26 12:35:47;;;;;;;12.27;4.47;;;27.90;81.90;;;;;;5086199;28;20082;-53
2021/10/26 12:38:27;;;;;;;13.40;4.25;;;27.90;82.00;;;;;;5084562;28;20092;-51
2021/10/26 12:41:14;;;;;;;13.45;5.03;;;27.90;82.00;;;;;;5085866;28;20023;-51
2021/10/26 12:43:49;;;;;;;15.80;5.40;;;27.90;82.20;;;;;;5086004;28;20023;-52
2021/10/26 12:46:17;;;;;;;16.90;5.53;;;27.90;82.40;;;;;;5085707;28;20317;-53
2021/10/26 12:48:44;;;;;;;16.95;5.88;;;27.90;82.60;;;;;;5085597;28;20045;-48
2021/10/26 12:51:18;;;;;;;18.38;5.78;;;28.00;82.90;;;;;;5085697;28;20043;-50
2021/10/26 12:53:44;;;;;;;13.98;5.60;;;28.00;83.50;;;;;;5085888;28;20046;-50
2021/10/26 12:56:20;;;;;;;20.63;5.75;;;28.00;83.90;;;;;;5085670;28;20084;-50
2021/10/26 12:58:54;;;;;;;16.48;5.53;;;28.00;83.50;;;;;;5085565;28;20033;-52
2021/10/26 13:01:28;;;;;;;14.43;6.15;;;28.00;84.30;;;;;;5085506;28;20048;-49
2021/10/26 13:03:56;;;;;;;18.95;5.47;;;28.00;84.10;;;;;;5085620;28;20032;-50
2021/10/26 13:06:31;;;;;;;14.48;5.10;;;28.00;84.20;;;;;;5085555;28;20308;-51
2021/10/26 13:09:03;;;;;;;17.95;5.50;;;28.00;84.20;;;;;;5085493;28;20036;-53
2021/10/26 13:11:31;;;;;;;27.90;7.45;;;28.00;84.40;;;;;;5085175;28;20012;-50
2021/10/26 13:14:06;;;;;;;24.33;7.47;;;28.00;84.70;;;;;;5085402;28;20043;-47
2021/10/26 13:16:37;;;;;;;24.25;7.90;;;28.00;84.60;;;;;;5084969;28;20012;-47